createdAt,value
2019-06-20T00:01:50.473Z,23.50
2019-06-20T00:04:22.770Z,23.50
2019-06-20T00:06:52.078Z,23.50
2019-06-20T00:09:21.372Z,23.40
2019-06-20T00:11:53.076Z,23.40
2019-06-20T00:14:27.237Z,23.40
2019-06-20T00:16:59.407Z,23.40
2019-06-20T00:19:29.282Z,23.40
2019-06-20T00:21:58.538Z,23.30
2019-06-20T00:24:27.809Z,23.30
2019-06-20T00:26:57.073Z,23.30
2019-06-20T00:29:26.378Z,23.30
2019-06-20T00:31:55.641Z,23.30
2019-06-20T00:34:24.927Z,23.30
2019-06-20T00:36:56.460Z,23.30
2019-06-20T00:39:25.726Z,23.20
2019-06-20T00:41:54.994Z,23.20
2019-06-20T00:44:25.879Z,23.20
2019-06-20T00:46:55.140Z,23.20
2019-06-20T00:49:25.510Z,23.10
2019-06-20T00:51:54.849Z,23.20
2019-06-20T00:54:44.091Z,23.10
2019-06-20T00:57:16.206Z,23.10
2019-06-20T00:59:46.866Z,23.10
2019-06-20T01:02:16.132Z,23.10
2019-06-20T01:04:45.381Z,23.10
2019-06-20T01:07:14.638Z,23.00
2019-06-20T01:09:51.105Z,23.00
2019-06-20T01:12:23.158Z,23.10
2019-06-20T01:14:52.430Z,23.00
2019-06-20T01:17:21.724Z,23.00
2019-06-20T01:19:53.058Z,23.00
2019-06-20T01:22:23.930Z,23.00
2019-06-20T01:24:55.230Z,23.00
2019-06-20T01:27:26.801Z,23.00
2019-06-20T01:29:58.517Z,22.90
2019-06-20T01:32:35.098Z,23.00
2019-06-20T01:35:05.183Z,23.00
2019-06-20T01:37:36.756Z,23.00
2019-06-20T01:40:07.460Z,23.00
2019-06-20T01:42:36.858Z,22.90
2019-06-20T01:45:07.646Z,22.90
2019-06-20T01:47:42.921Z,22.90
2019-06-20T01:50:12.318Z,22.90
2019-06-20T01:52:41.645Z,22.90
2019-06-20T01:55:10.978Z,22.90
2019-06-20T01:57:47.720Z,22.90
2019-06-20T02:00:40.588Z,22.90
2019-06-20T02:03:10.120Z,22.90
2019-06-20T02:05:39.608Z,22.90
2019-06-20T02:08:10.033Z,22.80
2019-06-20T02:10:39.336Z,22.80
2019-06-20T02:13:12.461Z,22.70
2019-06-20T02:15:41.841Z,22.80
2019-06-20T02:18:11.108Z,22.70
2019-06-20T02:20:49.376Z,22.70
2019-06-20T02:23:21.171Z,22.70
2019-06-20T02:25:52.561Z,22.70
2019-06-20T02:28:25.233Z,22.70
2019-06-20T02:30:54.491Z,22.80
2019-06-20T02:33:27.404Z,22.70
2019-06-20T02:36:02.611Z,22.70
2019-06-20T02:38:31.899Z,22.70
2019-06-20T02:41:01.465Z,22.70
2019-06-20T02:43:33.492Z,22.70
2019-06-20T02:46:05.523Z,22.70
2019-06-20T02:48:35.092Z,22.70
2019-06-20T02:51:05.899Z,22.60
2019-06-20T02:53:37.255Z,22.60
2019-06-20T02:56:09.006Z,22.60
2019-06-20T02:58:38.277Z,22.60
2019-06-20T03:01:07.536Z,22.60
2019-06-20T03:03:36.834Z,22.60
2019-06-20T03:06:06.146Z,22.60
2019-06-20T03:08:35.458Z,22.60
2019-06-20T03:11:07.533Z,22.60
2019-06-20T03:13:38.620Z,22.60
2019-06-20T03:16:07.905Z,22.60
2019-06-20T03:18:39.302Z,22.60
2019-06-20T03:21:08.649Z,22.60
2019-06-20T03:23:40.254Z,22.60
2019-06-20T03:26:09.518Z,22.50
2019-06-20T03:28:38.869Z,22.50
2019-06-20T03:31:08.124Z,22.50
2019-06-20T03:33:38.455Z,22.50
2019-06-20T03:36:07.741Z,22.50
2019-06-20T03:38:37.301Z,22.60
2019-06-20T03:41:06.567Z,22.60
2019-06-20T03:43:35.893Z,22.60
2019-06-20T03:46:05.145Z,22.60
2019-06-20T03:48:36.457Z,22.50
2019-06-20T03:51:08.972Z,22.50
2019-06-20T03:53:40.042Z,22.60
2019-06-20T03:56:09.297Z,22.60
2019-06-20T03:58:40.122Z,22.60
2019-06-20T04:01:09.406Z,22.60
2019-06-20T04:03:40.263Z,22.70
2019-06-20T04:06:12.305Z,22.70
2019-06-20T04:08:41.583Z,22.70
2019-06-20T04:11:12.613Z,22.70
2019-06-20T04:13:43.196Z,22.80
2019-06-20T04:16:12.562Z,22.80
2019-06-20T04:18:41.890Z,22.80
2019-06-20T04:21:11.160Z,22.80
2019-06-20T04:23:40.433Z,22.80
2019-06-20T04:26:09.729Z,22.90
2019-06-20T04:28:38.999Z,22.90
2019-06-20T04:31:08.251Z,22.80
2019-06-20T04:33:37.549Z,22.80
2019-06-20T04:36:06.814Z,22.90
2019-06-20T04:38:36.095Z,23.00
2019-06-20T04:41:05.338Z,23.00
2019-06-20T04:43:34.595Z,23.10
2019-06-20T04:46:15.567Z,23.00
2019-06-20T04:48:44.821Z,23.00
2019-06-20T04:51:15.382Z,23.00
2019-06-20T04:53:44.630Z,23.00
2019-06-20T04:56:13.927Z,23.10
2019-06-20T04:58:43.265Z,23.00
2019-06-20T05:01:12.542Z,23.10
2019-06-20T05:03:43.870Z,23.20
2019-06-20T05:06:13.139Z,23.30
2019-06-20T05:08:42.397Z,23.30
2019-06-20T05:11:11.655Z,23.40
2019-06-20T05:13:40.930Z,23.50
2019-06-20T05:16:12.525Z,23.50
2019-06-20T05:18:41.802Z,23.60
2019-06-20T05:21:12.623Z,23.60
2019-06-20T05:23:41.875Z,23.60
2019-06-20T05:26:11.178Z,23.60
2019-06-20T05:28:40.450Z,23.60
2019-06-20T05:31:13.033Z,23.70
2019-06-20T05:33:42.354Z,23.70
2019-06-20T05:36:11.673Z,23.70
2019-06-20T05:38:42.977Z,23.80
2019-06-20T05:41:12.245Z,23.80
2019-06-20T05:43:44.337Z,23.80
2019-06-20T05:46:13.603Z,23.90
2019-06-20T05:48:52.173Z,23.90
2019-06-20T05:51:21.420Z,24.00
2019-06-20T05:53:51.517Z,24.00
2019-06-20T05:56:20.765Z,24.10
2019-06-20T05:58:50.619Z,24.10
2019-06-20T06:01:20.262Z,24.10
2019-06-20T06:03:49.523Z,24.20
2019-06-20T06:06:21.836Z,24.20
2019-06-20T06:08:51.924Z,24.20
2019-06-20T06:11:23.390Z,24.20
2019-06-20T06:13:53.366Z,24.30
2019-06-20T06:16:27.510Z,24.30
2019-06-20T06:18:53.791Z,24.40
2019-06-20T06:21:24.525Z,24.40
2019-06-20T06:23:55.094Z,24.60
2019-06-20T06:26:24.377Z,24.70
2019-06-20T06:28:56.466Z,24.80
2019-06-20T06:31:35.933Z,24.90
2019-06-20T06:34:05.216Z,25.00
2019-06-20T06:36:40.313Z,25.20
2019-06-20T06:39:20.343Z,25.30
2019-06-20T06:41:49.643Z,25.60
2019-06-20T06:44:20.177Z,25.80
2019-06-20T06:46:54.394Z,26.00
2019-06-20T06:49:21.011Z,26.20
2019-06-20T06:51:51.569Z,26.30
2019-06-20T06:54:20.950Z,26.50
2019-06-20T06:56:50.274Z,26.60
2019-06-20T06:59:19.548Z,26.70
2019-06-20T07:01:52.432Z,26.60
2019-06-20T07:04:23.804Z,26.70
2019-06-20T07:06:53.069Z,26.80
2019-06-20T07:09:22.405Z,26.90
2019-06-20T07:11:54.556Z,26.80
2019-06-20T07:14:23.809Z,26.80
2019-06-20T07:17:00.299Z,26.90
2019-06-20T07:19:27.271Z,26.80
2019-06-20T07:21:56.552Z,26.80
2019-06-20T07:24:25.873Z,26.70
2019-06-20T07:26:56.098Z,26.70
2019-06-20T07:29:30.091Z,26.70
2019-06-20T07:32:02.579Z,26.90
2019-06-20T07:34:35.625Z,27.00
2019-06-20T07:37:04.902Z,27.10
2019-06-20T07:39:37.691Z,27.20
2019-06-20T07:42:08.531Z,28.10
2019-06-20T07:44:39.346Z,29.20
2019-06-20T07:47:17.929Z,30.00
2019-06-20T07:49:47.192Z,30.80
2019-06-20T07:52:18.988Z,31.10
2019-06-20T07:54:50.863Z,32.20
2019-06-20T07:57:20.194Z,33.30
2019-06-20T07:59:54.555Z,33.90
2019-06-20T08:02:23.846Z,34.50
2019-06-20T08:04:55.245Z,34.40
2019-06-20T08:07:27.306Z,33.70
2019-06-20T08:09:58.512Z,33.10
2019-06-20T08:12:27.582Z,33.00
2019-06-20T08:15:05.343Z,33.20
2019-06-20T08:17:35.403Z,33.00
2019-06-20T08:20:05.770Z,32.70
2019-06-20T08:22:36.934Z,32.60
2019-06-20T08:25:08.821Z,32.60
2019-06-20T08:27:51.601Z,33.30
2019-06-20T08:30:27.108Z,33.10
2019-06-20T08:32:58.138Z,32.70
2019-06-20T08:35:29.942Z,32.90
2019-06-20T08:38:00.996Z,32.40
2019-06-20T08:40:38.881Z,32.00
2019-06-20T08:43:08.173Z,31.70
2019-06-20T08:45:40.151Z,31.10
2019-06-20T08:48:11.014Z,30.90
2019-06-20T08:50:41.626Z,30.80
2019-06-20T08:53:12.335Z,30.90
2019-06-20T08:55:41.640Z,31.00
2019-06-20T08:58:13.176Z,31.00
2019-06-20T09:00:42.853Z,31.00
2019-06-20T09:03:12.116Z,31.10
2019-06-20T09:05:41.446Z,31.20
2019-06-20T09:08:11.664Z,31.60
2019-06-20T09:10:42.208Z,32.20
2019-06-20T09:13:15.617Z,32.50
2019-06-20T09:15:45.007Z,32.30
2019-06-20T09:18:15.692Z,33.10
2019-06-20T09:20:55.969Z,34.10
2019-06-20T09:23:28.669Z,34.90
2019-06-20T09:25:57.960Z,35.30
2019-06-20T09:28:33.615Z,35.30
2019-06-20T09:31:08.442Z,34.70
2019-06-20T09:33:38.033Z,34.70
2019-06-20T09:36:07.310Z,35.40
2019-06-20T09:38:36.576Z,35.70
2019-06-20T09:41:05.881Z,37.00
2019-06-20T09:43:50.038Z,40.10
2019-06-20T09:46:20.281Z,42.00
2019-06-20T09:48:50.723Z,42.40
2019-06-20T09:51:23.637Z,42.90
2019-06-20T09:53:53.897Z,43.60
2019-06-20T09:56:24.809Z,44.40
2019-06-20T09:58:55.321Z,44.50
2019-06-20T10:01:27.498Z,45.30
2019-06-20T10:03:59.962Z,45.80
2019-06-20T10:06:35.286Z,46.70
2019-06-20T10:09:14.053Z,47.20
2019-06-20T10:11:47.936Z,47.00
2019-06-20T10:14:21.108Z,45.30
2019-06-20T10:16:53.984Z,44.50
2019-06-20T10:19:23.618Z,43.80
2019-06-20T10:21:56.034Z,43.40
2019-06-20T10:24:25.466Z,42.80
2019-06-20T10:26:59.548Z,42.00
2019-06-20T10:29:28.843Z,41.50
2019-06-20T10:32:00.421Z,41.50
2019-06-20T10:34:31.193Z,40.70
2019-06-20T10:37:01.377Z,39.30
2019-06-20T10:39:34.469Z,38.30
2019-06-20T10:42:06.062Z,37.40
2019-06-20T10:44:37.557Z,36.50
2019-06-20T10:47:08.418Z,36.00
2019-06-20T10:49:39.851Z,35.40
2019-06-20T10:52:13.894Z,35.00
2019-06-20T10:54:44.902Z,34.60
2019-06-20T10:57:14.879Z,34.50
2019-06-20T10:59:44.457Z,34.20
2019-06-20T11:02:16.624Z,33.90
2019-06-20T11:04:45.935Z,33.50
2019-06-20T11:07:15.309Z,33.40
2019-06-20T11:09:47.131Z,33.10
2019-06-20T11:12:16.457Z,32.90
2019-06-20T11:14:55.474Z,32.60
2019-06-20T11:17:27.353Z,32.50
2019-06-20T11:19:58.331Z,32.50
2019-06-20T11:22:31.660Z,32.70
2019-06-20T11:25:01.079Z,32.60
2019-06-20T11:27:32.708Z,32.50
2019-06-20T11:30:03.992Z,32.10
2019-06-20T11:32:34.672Z,31.90
2019-06-20T11:35:07.081Z,31.80
2019-06-20T11:37:37.571Z,31.70
2019-06-20T11:40:09.231Z,31.40
2019-06-20T11:42:39.948Z,31.40
2019-06-20T11:45:10.169Z,31.40
2019-06-20T11:47:42.543Z,31.50
2019-06-20T11:50:13.598Z,31.30
2019-06-20T11:52:45.602Z,31.20
2019-06-20T11:55:14.404Z,31.10
2019-06-20T11:57:45.257Z,31.10
2019-06-20T12:00:14.870Z,30.80
2019-06-20T12:02:45.710Z,30.90
2019-06-20T12:05:19.254Z,30.70
2019-06-20T12:07:51.380Z,30.70
2019-06-20T12:10:23.885Z,30.80
2019-06-20T12:12:53.230Z,30.80
2019-06-20T12:15:22.766Z,30.90
2019-06-20T12:17:52.336Z,30.90
2019-06-20T12:20:22.503Z,30.70
2019-06-20T12:22:51.951Z,30.50
2019-06-20T12:25:24.906Z,30.50
2019-06-20T12:27:54.452Z,30.40
2019-06-20T12:30:24.132Z,30.40
2019-06-20T12:32:53.410Z,30.50
2019-06-20T12:35:22.779Z,30.50
2019-06-20T12:37:52.287Z,30.60
2019-06-20T12:40:22.878Z,30.70
2019-06-20T12:42:54.236Z,30.80
2019-06-20T12:45:23.525Z,30.90
2019-06-20T12:47:52.856Z,31.00
2019-06-20T12:50:26.409Z,31.00
2019-06-20T12:52:57.097Z,31.10
2019-06-20T12:55:29.160Z,31.30
2019-06-20T12:57:58.487Z,31.30
2019-06-20T13:00:32.589Z,31.40
2019-06-20T13:03:05.685Z,31.50
2019-06-20T13:05:35.025Z,31.50
2019-06-20T13:08:06.802Z,31.60
2019-06-20T13:10:38.691Z,31.60
2019-06-20T13:13:08.557Z,31.50
2019-06-20T13:15:39.015Z,31.40
2019-06-20T13:18:08.692Z,31.30
2019-06-20T13:20:42.210Z,31.10
2019-06-20T13:23:11.643Z,31.20
2019-06-20T13:25:42.614Z,31.10
2019-06-20T13:28:17.477Z,30.80
2019-06-20T13:30:51.658Z,30.80
2019-06-20T13:33:19.485Z,30.70
2019-06-20T13:35:50.930Z,30.70
2019-06-20T13:38:21.550Z,30.60
2019-06-20T13:40:54.922Z,30.50
2019-06-20T13:43:24.173Z,30.30
2019-06-20T13:45:56.552Z,30.30
2019-06-20T13:48:26.909Z,30.10
2019-06-20T13:50:56.141Z,30.10
2019-06-20T13:53:25.481Z,30.00
2019-06-20T13:55:56.390Z,29.80
2019-06-20T13:58:32.888Z,29.60
2019-06-20T14:01:05.141Z,29.50
2019-06-20T14:03:34.318Z,29.30
2019-06-20T14:06:03.603Z,29.30
2019-06-20T14:08:34.983Z,29.20
2019-06-20T14:11:06.580Z,29.20
2019-06-20T14:13:47.635Z,29.20
2019-06-20T14:16:14.305Z,29.20
2019-06-20T14:18:44.473Z,29.20
2019-06-20T14:21:25.877Z,29.20
2019-06-20T14:23:56.701Z,29.10
2019-06-20T14:26:29.492Z,29.20
2019-06-20T14:29:00.857Z,29.20
2019-06-20T14:31:32.722Z,29.30
2019-06-20T14:34:01.881Z,29.20
2019-06-20T14:36:31.684Z,29.20
2019-06-20T14:39:08.864Z,29.20
2019-06-20T14:41:44.715Z,29.20
2019-06-20T14:44:17.997Z,29.10
2019-06-20T14:46:54.192Z,29.10
2019-06-20T14:49:25.806Z,29.00
2019-06-20T14:51:56.584Z,28.90
2019-06-20T14:54:27.028Z,28.70
2019-06-20T14:56:58.307Z,28.60
2019-06-20T14:59:29.650Z,28.50
2019-06-20T15:01:59.204Z,28.40
2019-06-20T15:04:33.294Z,28.30
2019-06-20T15:07:02.586Z,28.20
2019-06-20T15:09:31.863Z,28.00
2019-06-20T15:12:03.365Z,28.00
2019-06-20T15:14:36.389Z,28.00
2019-06-20T15:17:05.878Z,27.90
2019-06-20T15:19:43.390Z,27.80
2019-06-20T15:22:16.030Z,27.70
2019-06-20T15:24:48.539Z,27.70
2019-06-20T15:27:17.269Z,27.70
2019-06-20T15:29:47.630Z,27.60
2019-06-20T15:32:17.443Z,27.60
2019-06-20T15:34:48.173Z,27.70
2019-06-20T15:37:17.776Z,27.90
2019-06-20T15:39:51.684Z,27.80
2019-06-20T15:42:22.505Z,27.80
2019-06-20T15:44:55.681Z,27.80
2019-06-20T15:47:30.404Z,27.90
2019-06-20T15:50:04.893Z,27.90
2019-06-20T15:52:35.262Z,27.90
2019-06-20T15:55:05.269Z,28.00
2019-06-20T15:57:37.929Z,27.90
2019-06-20T16:00:15.494Z,27.90
2019-06-20T16:02:45.538Z,28.00
2019-06-20T16:05:14.811Z,28.00
2019-06-20T16:07:44.045Z,28.00
2019-06-20T16:10:16.917Z,28.00
2019-06-20T16:12:47.505Z,28.00
2019-06-20T16:15:22.005Z,28.00
2019-06-20T16:17:53.769Z,28.00
2019-06-20T16:20:25.368Z,28.00
2019-06-20T16:22:54.630Z,28.00
2019-06-20T16:25:23.853Z,27.90
2019-06-20T16:27:57.880Z,28.00
2019-06-20T16:30:28.107Z,27.90
2019-06-20T16:32:59.886Z,27.90
2019-06-20T16:35:29.097Z,28.00
2019-06-20T16:37:58.405Z,28.00
2019-06-20T16:40:35.744Z,27.90
2019-06-20T16:43:13.500Z,27.90
2019-06-20T16:45:43.232Z,27.70
2019-06-20T16:48:12.553Z,27.60
2019-06-20T16:50:42.968Z,27.40
2019-06-20T16:53:12.269Z,27.30
2019-06-20T16:55:43.981Z,27.20
2019-06-20T16:58:13.269Z,27.20
2019-06-20T17:00:42.797Z,27.20
2019-06-20T17:03:13.553Z,27.10
2019-06-20T17:05:47.402Z,27.10
2019-06-20T17:08:19.389Z,27.00
2019-06-20T17:10:51.455Z,27.00
2019-06-20T17:13:20.783Z,26.90
2019-06-20T17:15:51.352Z,26.80
2019-06-20T17:18:22.788Z,26.70
2019-06-20T17:20:51.954Z,26.60
2019-06-20T17:23:24.162Z,26.60
2019-06-20T17:25:57.393Z,26.60
2019-06-20T17:28:26.574Z,26.60
2019-06-20T17:30:55.797Z,26.50
2019-06-20T17:33:25.067Z,26.50
2019-06-20T17:35:54.322Z,26.50
2019-06-20T17:38:24.597Z,26.40
2019-06-20T17:40:53.869Z,26.30
2019-06-20T17:43:23.084Z,26.30
2019-06-20T17:45:54.353Z,26.30
2019-06-20T17:48:29.609Z,26.20
2019-06-20T17:51:01.862Z,26.20
2019-06-20T17:53:31.142Z,26.10
2019-06-20T17:56:05.202Z,26.00
2019-06-20T17:58:34.485Z,25.90
2019-06-20T18:01:05.918Z,25.90
2019-06-20T18:03:37.022Z,25.70
2019-06-20T18:06:06.339Z,25.70
2019-06-20T18:08:37.150Z,25.70
2019-06-20T18:11:06.473Z,25.60
2019-06-20T18:13:36.937Z,25.50
2019-06-20T18:16:07.270Z,25.50
2019-06-20T18:18:40.620Z,25.50
2019-06-20T18:21:11.556Z,25.40
2019-06-20T18:23:42.458Z,25.40
2019-06-20T18:26:15.109Z,25.40
2019-06-20T18:28:47.443Z,25.40
2019-06-20T18:31:16.608Z,25.30
2019-06-20T18:33:49.858Z,25.30
2019-06-20T18:36:20.492Z,25.30
2019-06-20T18:38:54.145Z,25.30
2019-06-20T18:41:23.469Z,25.30
2019-06-20T18:43:59.885Z,25.20
2019-06-20T18:46:37.426Z,25.10
2019-06-20T18:49:08.007Z,25.00
2019-06-20T18:51:37.257Z,25.00
2019-06-20T18:54:09.634Z,25.00
2019-06-20T18:56:44.970Z,25.00
2019-06-20T18:59:16.524Z,25.00
2019-06-20T19:01:49.383Z,24.90
2019-06-20T19:04:21.483Z,24.80
2019-06-20T19:06:51.882Z,24.80
2019-06-20T19:09:25.918Z,24.80
2019-06-20T19:12:05.839Z,24.70
2019-06-20T19:14:42.354Z,24.70
2019-06-20T19:17:14.807Z,24.60
2019-06-20T19:19:46.255Z,24.60
2019-06-20T19:22:15.632Z,24.60
2019-06-20T19:24:47.770Z,24.50
2019-06-20T19:27:17.068Z,24.50
2019-06-20T19:29:49.590Z,24.50
2019-06-20T19:32:17.769Z,24.50
2019-06-20T19:35:01.025Z,24.50
2019-06-20T19:37:22.601Z,24.50
2019-06-20T19:39:54.067Z,24.50
2019-06-20T19:42:25.746Z,24.50
2019-06-20T19:44:56.575Z,24.50
2019-06-20T19:47:28.955Z,24.40
2019-06-20T19:49:58.267Z,24.50
2019-06-20T19:52:27.621Z,24.40
2019-06-20T19:55:01.964Z,24.40
2019-06-20T19:57:33.135Z,24.30
2019-06-20T20:00:02.531Z,24.30
2019-06-20T20:02:34.257Z,24.20
2019-06-20T20:05:17.737Z,24.20
2019-06-20T20:07:35.722Z,24.20
2019-06-20T20:10:06.207Z,24.20
2019-06-20T20:12:38.529Z,24.10
2019-06-20T20:15:08.380Z,24.10
2019-06-20T20:17:38.977Z,24.00
2019-06-20T20:20:10.690Z,23.80
2019-06-20T20:22:42.304Z,23.80
2019-06-20T20:25:18.080Z,23.80
2019-06-20T20:27:54.926Z,23.70
2019-06-20T20:30:24.643Z,23.60
2019-06-20T20:32:56.222Z,23.60
2019-06-20T20:35:35.367Z,23.60
2019-06-20T20:37:57.801Z,23.50
2019-06-20T20:40:29.248Z,23.50
2019-06-20T20:43:01.423Z,23.40
2019-06-20T20:45:31.136Z,23.30
2019-06-20T20:48:00.486Z,23.30
2019-06-20T20:50:29.781Z,23.20
2019-06-20T20:53:05.745Z,23.20
2019-06-20T20:55:35.062Z,23.10
2019-06-20T20:58:11.906Z,23.10
2019-06-20T21:01:02.875Z,23.10
2019-06-20T21:03:34.479Z,23.10
2019-06-20T21:06:06.817Z,23.10
2019-06-20T21:08:36.046Z,23.10
2019-06-20T21:11:10.082Z,23.00
2019-06-20T21:13:39.369Z,23.00
2019-06-20T21:16:13.857Z,23.00
2019-06-20T21:18:44.625Z,23.00
2019-06-20T21:21:16.161Z,22.90
2019-06-20T21:23:50.168Z,22.90
2019-06-20T21:26:21.886Z,22.90
2019-06-20T21:28:51.038Z,22.90
2019-06-20T21:31:25.344Z,22.90
2019-06-20T21:33:54.766Z,22.90
2019-06-20T21:36:24.004Z,22.90
2019-06-20T21:38:54.254Z,22.80
2019-06-20T21:41:23.511Z,22.80
2019-06-20T21:43:52.743Z,22.70
2019-06-20T21:46:25.346Z,22.70
2019-06-20T21:49:03.387Z,22.70
2019-06-20T21:51:38.761Z,22.70
2019-06-20T21:54:14.065Z,22.60
2019-06-20T21:56:47.149Z,22.60
2019-06-20T21:59:16.382Z,22.60
2019-06-20T22:01:55.729Z,22.60
2019-06-20T22:04:30.368Z,22.50
2019-06-20T22:07:03.274Z,22.50
2019-06-20T22:09:32.550Z,22.40
2019-06-20T22:12:01.725Z,22.40
2019-06-20T22:14:32.534Z,22.30
2019-06-20T22:17:06.019Z,22.30
2019-06-20T22:19:44.408Z,22.30
2019-06-20T22:22:14.741Z,22.20
2019-06-20T22:24:48.135Z,22.20
2019-06-20T22:27:19.574Z,22.20
2019-06-20T22:29:48.828Z,22.20
2019-06-20T22:32:18.087Z,22.20
2019-06-20T22:34:47.241Z,22.10
2019-06-20T22:37:21.188Z,22.10
2019-06-20T22:39:50.415Z,22.00
2019-06-20T22:42:22.412Z,22.00
2019-06-20T22:44:51.589Z,22.00
2019-06-20T22:47:23.861Z,22.00
2019-06-20T22:49:53.003Z,22.00
2019-06-20T22:52:22.164Z,22.00
2019-06-20T22:54:51.315Z,21.90
2019-06-20T22:57:25.549Z,21.90
2019-06-20T22:59:55.298Z,21.90
2019-06-20T23:02:26.805Z,21.90
2019-06-20T23:04:57.643Z,21.90
2019-06-20T23:07:26.800Z,21.90
2019-06-20T23:10:09.320Z,21.90
2019-06-20T23:12:27.177Z,21.90
2019-06-20T23:14:56.396Z,21.90
2019-06-20T23:17:25.597Z,21.80
2019-06-20T23:19:54.738Z,21.80
2019-06-20T23:22:25.965Z,21.80
2019-06-20T23:24:55.228Z,21.80
2019-06-20T23:27:24.446Z,21.70
2019-06-20T23:29:53.713Z,21.70
2019-06-20T23:32:22.988Z,21.70
2019-06-20T23:34:52.565Z,21.70
2019-06-20T23:37:23.640Z,21.70
2019-06-20T23:39:54.246Z,21.60
2019-06-20T23:42:23.881Z,21.70
2019-06-20T23:44:53.190Z,21.60
2019-06-20T23:47:23.756Z,21.60
2019-06-20T23:49:53.101Z,21.50
2019-06-20T23:52:26.631Z,21.50
2019-06-20T23:54:57.042Z,21.40
2019-06-20T23:57:26.237Z,21.30
2019-06-20T23:59:56.310Z,21.30
